Time;durP1;ratioP1;P1;durP2;ratioP2;P2;SDS_P1;SDS_P2;PMS_P1;PMS_P2;Temp;Humidity;BMP_temperature;BMP_pressure;BME280_temperature;BME280_humidity;BME280_pressure;Samples;Min_cycle;Max_cycle;Signal;HPM_P1;HPM_P2
2021/06/30 00:01:18;;;;;;;0.52;0.30;;;17.50;94.60;;;;;;5037601;28;20029;-67
2021/06/30 00:03:44;;;;;;;0.40;0.40;;;17.40;94.60;;;;;;5035245;28;20469;-67
2021/06/30 00:06:10;;;;;;;0.68;0.40;;;17.40;94.60;;;;;;5017952;28;20055;-67
2021/06/30 00:08:36;;;;;;;1.15;0.50;;;17.40;94.50;;;;;;5032873;28;20022;-67
2021/06/30 00:11:02;;;;;;;0.50;0.40;;;17.40;94.60;;;;;;5034062;28;20032;-67
2021/06/30 00:13:28;;;;;;;1.15;0.47;;;17.30;94.50;;;;;;5033387;28;20021;-67
2021/06/30 00:15:54;;;;;;;0.50;0.40;;;17.30;94.60;;;;;;5034422;28;20067;-67
2021/06/30 00:18:22;;;;;;;0.47;0.40;;;17.30;94.60;;;;;;5034856;28;20017;-67
2021/06/30 00:20:48;;;;;;;0.80;0.50;;;17.30;94.60;;;;;;5033319;28;20042;-67
2021/06/30 00:23:14;;;;;;;0.70;0.40;;;17.20;94.60;;;;;;5035418;28;20028;-67
2021/06/30 00:25:39;;;;;;;0.57;0.40;;;17.20;94.70;;;;;;5033911;28;20470;-68
2021/06/30 00:28:05;;;;;;;0.60;0.40;;;17.10;94.80;;;;;;5033903;28;20029;-67
2021/06/30 00:30:31;;;;;;;0.52;0.50;;;17.10;94.80;;;;;;5031641;28;20042;-67
2021/06/30 00:32:57;;;;;;;0.88;0.50;;;17.10;94.80;;;;;;5034247;28;20028;-67
2021/06/30 00:35:23;;;;;;;0.47;0.40;;;17.10;94.90;;;;;;5036620;28;20028;-67
2021/06/30 00:37:48;;;;;;;0.63;0.43;;;17.10;94.90;;;;;;5034531;28;20025;-67
2021/06/30 00:40:14;;;;;;;0.45;0.40;;;17.10;94.90;;;;;;5035116;28;20021;-67
2021/06/30 00:42:40;;;;;;;0.60;0.40;;;17.10;94.90;;;;;;5033717;28;20014;-67
2021/06/30 00:45:07;;;;;;;1.05;0.38;;;17.10;94.90;;;;;;5033643;28;20021;-67
2021/06/30 00:47:33;;;;;;;0.45;0.30;;;17.00;94.90;;;;;;5032452;28;20025;-67
2021/06/30 00:49:59;;;;;;;0.25;0.20;;;17.00;94.90;;;;;;5035470;28;20473;-67
2021/06/30 00:52:24;;;;;;;0.60;0.40;;;17.00;95.00;;;;;;5034889;28;20029;-67
2021/06/30 00:54:50;;;;;;;0.63;0.40;;;17.00;95.00;;;;;;5033255;28;20053;-67
2021/06/30 00:57:19;;;;;;;0.35;0.30;;;17.00;95.00;;;;;;5032937;28;20029;-67
2021/06/30 00:59:45;;;;;;;0.60;0.43;;;16.90;95.00;;;;;;5036195;28;20040;-67
2021/06/30 01:02:11;;;;;;;0.43;0.40;;;16.90;95.00;;;;;;5033625;28;20489;-67
2021/06/30 01:04:37;;;;;;;0.40;0.30;;;16.90;95.00;;;;;;5034695;28;20108;-67
2021/06/30 01:07:03;;;;;;;0.73;0.50;;;16.90;95.00;;;;;;5031701;28;20116;-67
2021/06/30 01:09:30;;;;;;;1.27;0.70;;;16.90;95.00;;;;;;5032984;28;20078;-67
2021/06/30 01:11:58;;;;;;;0.60;0.30;;;16.80;95.00;;;;;;5031885;28;20117;-67
2021/06/30 01:14:29;;;;;;;0.60;0.40;;;16.90;95.10;;;;;;5033220;28;20049;-67
2021/06/30 01:16:55;;;;;;;0.70;0.50;;;16.80;95.10;;;;;;5033978;28;20026;-67
2021/06/30 01:19:22;;;;;;;0.80;0.43;;;16.80;95.10;;;;;;5031966;28;20452;-67
2021/06/30 01:21:50;;;;;;;0.60;0.30;;;16.80;95.10;;;;;;5033075;28;20024;-68
2021/06/30 01:24:16;;;;;;;0.90;0.55;;;16.80;95.20;;;;;;5032775;28;20500;-68
2021/06/30 01:26:42;;;;;;;0.60;0.50;;;16.80;95.20;;;;;;5033709;28;20105;-68
2021/06/30 01:29:08;;;;;;;0.73;0.45;;;16.80;95.30;;;;;;5032597;28;20049;-68
2021/06/30 01:31:34;;;;;;;0.80;0.50;;;16.80;95.30;;;;;;5034511;28;20025;-68
2021/06/30 01:33:59;;;;;;;0.40;0.40;;;16.70;95.30;;;;;;5033066;28;20030;-68
2021/06/30 01:36:25;;;;;;;0.90;0.43;;;16.70;95.30;;;;;;5034972;28;20048;-68
2021/06/30 01:38:50;;;;;;;1.15;0.55;;;16.70;95.30;;;;;;5035755;28;20017;-69
2021/06/30 01:41:16;;;;;;;1.73;0.80;;;16.70;95.40;;;;;;5033191;28;20059;-68
2021/06/30 01:43:42;;;;;;;0.43;0.35;;;16.70;95.40;;;;;;5033506;28;20018;-69
2021/06/30 01:46:08;;;;;;;0.60;0.43;;;16.70;95.40;;;;;;5032314;28;20481;-69
2021/06/30 01:48:33;;;;;;;0.65;0.40;;;16.70;95.50;;;;;;5034385;28;20114;-68
2021/06/30 01:50:59;;;;;;;0.43;0.40;;;16.70;95.50;;;;;;5034363;28;20033;-69
2021/06/30 01:53:24;;;;;;;0.60;0.50;;;16.60;95.50;;;;;;5034690;28;20025;-68
2021/06/30 01:55:50;;;;;;;0.70;0.52;;;16.60;95.60;;;;;;5033187;28;20408;-69
2021/06/30 01:58:18;;;;;;;1.10;0.60;;;16.60;95.60;;;;;;5034574;28;20096;-69
2021/06/30 02:00:44;;;;;;;1.60;0.57;;;16.60;95.70;;;;;;5034957;28;20068;-69
2021/06/30 02:03:09;;;;;;;2.35;0.70;;;16.60;95.70;;;;;;5034806;28;20439;-68
2021/06/30 02:05:35;;;;;;;0.82;0.50;;;16.60;95.70;;;;;;5033083;28;20104;-69
2021/06/30 02:08:01;;;;;;;2.72;0.73;;;16.60;95.80;;;;;;5034098;28;20029;-68
2021/06/30 02:10:28;;;;;;;0.50;0.40;;;16.60;95.80;;;;;;5032434;28;20037;-69
2021/06/30 02:12:55;;;;;;;0.52;0.50;;;16.60;95.80;;;;;;5032260;28;20025;-69
2021/06/30 02:15:27;;;;;;;0.57;0.50;;;16.60;95.80;;;;;;5037185;28;20037;-68
2021/06/30 02:17:54;;;;;;;1.25;0.60;;;16.60;95.80;;;;;;5039710;28;20021;-68
2021/06/30 02:20:20;;;;;;;0.93;0.50;;;16.60;95.90;;;;;;5036968;28;20048;-68
2021/06/30 02:22:47;;;;;;;0.85;0.40;;;16.60;95.90;;;;;;5037327;28;20029;-69
2021/06/30 02:25:17;;;;;;;0.85;0.60;;;16.60;95.90;;;;;;5037009;28;20108;-68
2021/06/30 02:27:43;;;;;;;0.73;0.50;;;16.60;95.90;;;;;;5034718;28;20052;-69
2021/06/30 02:30:14;;;;;;;0.93;0.43;;;16.60;96.00;;;;;;5035785;28;20075;-68
2021/06/30 02:32:41;;;;;;;0.70;0.50;;;16.50;96.00;;;;;;5048212;28;20025;-68
2021/06/30 02:35:09;;;;;;;0.55;0.40;;;16.50;96.00;;;;;;5039525;28;20055;-69
2021/06/30 02:37:35;;;;;;;0.77;0.60;;;16.50;96.10;;;;;;5036911;28;20401;-68
2021/06/30 02:40:00;;;;;;;1.10;0.70;;;16.50;96.10;;;;;;5037823;28;20519;-69
2021/06/30 02:42:26;;;;;;;1.60;0.60;;;16.40;96.10;;;;;;5037978;28;20028;-68
2021/06/30 02:44:52;;;;;;;0.68;0.60;;;16.40;96.20;;;;;;5035687;28;20489;-68
2021/06/30 02:47:18;;;;;;;0.77;0.60;;;16.40;96.30;;;;;;5035327;28;20132;-68
2021/06/30 02:49:43;;;;;;;1.08;0.77;;;16.40;96.30;;;;;;5037467;28;20158;-68
2021/06/30 02:52:09;;;;;;;1.10;0.77;;;16.40;96.30;;;;;;5039280;28;20469;-68
2021/06/30 02:54:35;;;;;;;1.90;0.70;;;16.40;96.30;;;;;;5036512;28;20377;-68
2021/06/30 02:57:00;;;;;;;1.40;0.90;;;16.40;96.40;;;;;;5035052;28;20095;-68
2021/06/30 02:59:26;;;;;;;1.05;0.70;;;16.40;96.50;;;;;;5039804;28;20490;-68
2021/06/30 03:01:51;;;;;;;0.98;0.73;;;16.30;96.50;;;;;;5036807;28;20025;-69
2021/06/30 03:04:17;;;;;;;1.00;0.57;;;16.30;96.60;;;;;;5036819;28;20113;-68
2021/06/30 03:06:43;;;;;;;2.05;0.75;;;16.30;96.60;;;;;;5035867;28;20079;-68
2021/06/30 03:09:09;;;;;;;0.70;0.60;;;16.30;96.60;;;;;;5034808;28;20024;-68
2021/06/30 03:11:35;;;;;;;1.00;0.75;;;16.30;96.70;;;;;;5033921;28;20112;-69
2021/06/30 03:14:01;;;;;;;1.10;0.60;;;16.30;96.70;;;;;;5034764;28;20459;-68
2021/06/30 03:16:26;;;;;;;1.88;0.85;;;16.30;96.70;;;;;;5039571;28;20481;-68
2021/06/30 03:18:52;;;;;;;3.30;1.00;;;16.30;96.80;;;;;;5036419;28;20036;-68
2021/06/30 03:21:17;;;;;;;0.98;0.70;;;16.30;96.80;;;;;;5037758;28;20100;-68
2021/06/30 03:23:43;;;;;;;1.40;0.68;;;16.30;96.80;;;;;;5035651;28;20070;-68
2021/06/30 03:26:08;;;;;;;0.85;0.63;;;16.30;96.80;;;;;;5035104;28;20029;-68
2021/06/30 03:28:34;;;;;;;1.05;0.75;;;16.30;96.80;;;;;;5035191;28;20100;-68
2021/06/30 03:30:59;;;;;;;1.02;0.75;;;16.30;96.80;;;;;;5034331;28;20535;-69
2021/06/30 03:33:25;;;;;;;2.08;0.88;;;16.30;96.90;;;;;;5035227;28;20496;-69
2021/06/30 03:35:50;;;;;;;1.10;0.75;;;16.30;96.90;;;;;;5036073;28;20017;-69
2021/06/30 03:38:16;;;;;;;1.05;0.95;;;16.30;97.00;;;;;;5036230;28;20219;-68
2021/06/30 03:40:42;;;;;;;1.65;0.98;;;16.30;97.00;;;;;;5035142;28;20013;-68
2021/06/30 03:43:07;;;;;;;1.42;1.00;;;16.20;97.00;;;;;;5035119;28;20492;-68
2021/06/30 03:45:33;;;;;;;2.72;1.30;;;16.20;97.00;;;;;;5033667;28;20397;-69
2021/06/30 03:47:58;;;;;;;1.75;0.90;;;16.20;97.10;;;;;;5034140;28;20029;-68
2021/06/30 03:50:24;;;;;;;2.53;1.35;;;16.20;97.20;;;;;;5036224;28;20033;-68
2021/06/30 03:52:49;;;;;;;1.35;1.08;;;16.20;97.30;;;;;;5035612;28;20026;-69
2021/06/30 03:55:15;;;;;;;1.25;0.95;;;16.20;97.30;;;;;;5035362;28;20092;-68
2021/06/30 03:57:40;;;;;;;0.93;0.68;;;16.20;97.30;;;;;;5039261;28;20053;-69
2021/06/30 04:00:08;;;;;;;1.55;1.05;;;16.20;97.40;;;;;;5041604;28;20044;-68
2021/06/30 04:02:33;;;;;;;1.05;0.90;;;16.20;97.40;;;;;;5037497;28;20022;-69
2021/06/30 04:04:59;;;;;;;1.20;1.10;;;16.20;97.40;;;;;;5035244;28;20029;-68
2021/06/30 04:07:24;;;;;;;2.63;0.85;;;16.20;97.40;;;;;;5034702;28;20477;-68
2021/06/30 04:09:50;;;;;;;1.30;1.00;;;16.20;97.50;;;;;;5043519;28;20056;-68
2021/06/30 04:12:15;;;;;;;1.75;1.00;;;16.20;97.50;;;;;;5032661;28;20033;-70
2021/06/30 04:14:41;;;;;;;2.35;1.02;;;16.20;97.50;;;;;;5032499;28;20504;-69
2021/06/30 04:17:07;;;;;;;1.27;0.70;;;16.10;97.50;;;;;;5035815;28;20029;-68
2021/06/30 04:19:32;;;;;;;1.23;0.70;;;16.20;97.60;;;;;;5037099;28;20033;-69
2021/06/30 04:21:58;;;;;;;0.95;0.80;;;16.20;97.60;;;;;;5034942;28;20481;-69
2021/06/30 04:24:23;;;;;;;2.22;0.77;;;16.10;97.60;;;;;;5034528;28;20076;-69
2021/06/30 04:26:49;;;;;;;1.20;0.73;;;16.10;97.70;;;;;;5034979;28;20022;-69
2021/06/30 04:29:14;;;;;;;0.80;0.80;;;16.10;97.70;;;;;;5033723;28;20057;-68
2021/06/30 04:31:40;;;;;;;0.70;0.60;;;16.10;97.70;;;;;;5031979;28;20080;-69
2021/06/30 04:34:05;;;;;;;2.08;0.98;;;16.20;97.80;;;;;;5035490;28;20033;-69
2021/06/30 04:36:31;;;;;;;1.77;0.80;;;16.10;97.70;;;;;;5036136;28;20021;-68
2021/06/30 04:38:57;;;;;;;1.40;0.73;;;16.10;97.70;;;;;;5035056;28;20021;-68
2021/06/30 04:41:22;;;;;;;1.13;0.80;;;16.20;97.80;;;;;;5032952;28;20021;-67
2021/06/30 04:43:48;;;;;;;1.10;0.80;;;16.20;97.80;;;;;;5034759;28;20030;-67
2021/06/30 04:46:13;;;;;;;1.50;1.00;;;16.20;97.80;;;;;;5032367;28;20066;-68
2021/06/30 04:48:39;;;;;;;1.02;0.85;;;16.20;97.80;;;;;;5033111;28;20112;-67
2021/06/30 04:51:05;;;;;;;1.20;0.90;;;16.20;97.90;;;;;;5035256;28;20068;-68
2021/06/30 04:53:31;;;;;;;1.30;0.65;;;16.20;97.90;;;;;;5036169;28;20481;-68
2021/06/30 04:55:58;;;;;;;0.88;0.63;;;16.20;97.90;;;;;;5032964;28;20025;-68
2021/06/30 04:58:25;;;;;;;2.08;0.80;;;16.20;97.90;;;;;;5032732;28;20033;-69
2021/06/30 05:00:54;;;;;;;0.75;0.60;;;16.20;97.90;;;;;;5036739;28;20377;-68
2021/06/30 05:03:21;;;;;;;1.80;0.75;;;16.20;98.00;;;;;;5032713;28;20125;-69
2021/06/30 05:05:47;;;;;;;2.10;0.70;;;16.20;98.00;;;;;;5016904;28;20555;-69
2021/06/30 05:08:13;;;;;;;1.17;0.77;;;16.20;98.10;;;;;;5034366;28;20479;-68
2021/06/30 05:10:38;;;;;;;0.70;0.55;;;16.20;98.20;;;;;;5044988;28;20167;-69
2021/06/30 05:13:04;;;;;;;1.05;0.50;;;16.20;98.20;;;;;;5033200;28;20033;-68
2021/06/30 05:15:30;;;;;;;0.50;0.40;;;16.20;98.40;;;;;;5032495;28;20030;-68
2021/06/30 05:17:55;;;;;;;0.85;0.40;;;16.20;98.20;;;;;;5037011;28;20089;-68
2021/06/30 05:20:21;;;;;;;0.80;0.50;;;16.20;98.20;;;;;;5041073;28;20409;-69
2021/06/30 05:22:46;;;;;;;1.75;0.47;;;16.20;98.20;;;;;;5051249;28;20040;-68
2021/06/30 05:25:12;;;;;;;0.60;0.50;;;16.20;98.30;;;;;;5051560;28;20114;-68
2021/06/30 05:27:38;;;;;;;0.50;0.40;;;16.20;98.30;;;;;;5048828;28;20021;-68
2021/06/30 05:30:04;;;;;;;0.98;0.40;;;16.20;98.30;;;;;;5031067;28;20030;-69
2021/06/30 05:32:30;;;;;;;1.98;0.40;;;16.20;98.30;;;;;;5032280;28;20037;-68
2021/06/30 05:34:56;;;;;;;0.45;0.30;;;16.20;98.30;;;;;;5032612;28;20491;-68
2021/06/30 05:37:21;;;;;;;0.50;0.40;;;16.20;98.40;;;;;;5031503;28;20523;-68
2021/06/30 05:39:47;;;;;;;0.90;0.40;;;16.20;98.40;;;;;;5032640;28;20083;-68
2021/06/30 05:42:12;;;;;;;1.00;0.50;;;16.20;98.40;;;;;;5031556;28;20032;-68
2021/06/30 05:44:38;;;;;;;0.88;0.50;;;16.20;98.40;;;;;;5033137;28;20026;-69
2021/06/30 05:47:03;;;;;;;1.10;0.60;;;16.20;98.40;;;;;;5032775;28;20025;-68
2021/06/30 05:49:29;;;;;;;1.00;0.50;;;16.20;98.40;;;;;;5035940;28;20508;-68
2021/06/30 05:51:54;;;;;;;1.15;0.50;;;16.20;98.40;;;;;;5036647;28;20030;-68
2021/06/30 05:54:20;;;;;;;0.90;0.70;;;16.20;98.40;;;;;;5036184;28;20456;-69
2021/06/30 05:56:47;;;;;;;1.00;0.65;;;16.20;98.40;;;;;;5036239;28;20026;-68
2021/06/30 05:59:13;;;;;;;0.98;0.45;;;16.20;98.40;;;;;;5035282;28;20419;-68
2021/06/30 06:01:38;;;;;;;0.85;0.70;;;16.20;98.30;;;;;;5041007;28;20021;-69
2021/06/30 06:04:04;;;;;;;0.77;0.50;;;16.20;98.40;;;;;;5076356;28;20032;-68
2021/06/30 06:06:29;;;;;;;0.93;0.52;;;16.20;98.40;;;;;;5067635;28;20025;-68
2021/06/30 06:08:55;;;;;;;1.13;0.55;;;16.20;98.40;;;;;;5076478;28;20107;-68
2021/06/30 06:11:21;;;;;;;1.20;0.80;;;16.30;98.40;;;;;;5076232;28;20021;-68
2021/06/30 06:13:47;;;;;;;0.82;0.52;;;16.20;98.40;;;;;;5076107;28;20082;-68
2021/06/30 06:16:14;;;;;;;1.08;0.70;;;16.30;98.40;;;;;;5073386;28;20016;-68
2021/06/30 06:18:40;;;;;;;0.70;0.57;;;16.30;98.40;;;;;;5056427;28;20104;-68
2021/06/30 06:21:06;;;;;;;0.93;0.77;;;16.30;98.40;;;;;;5054577;28;20049;-68
2021/06/30 06:23:32;;;;;;;0.85;0.70;;;16.30;98.40;;;;;;5056026;28;20025;-69
2021/06/30 06:25:58;;;;;;;1.25;0.80;;;16.40;98.40;;;;;;5055762;28;20477;-68
2021/06/30 06:28:30;;;;;;;1.40;0.70;;;16.40;98.30;;;;;;5044690;28;20042;-68
2021/06/30 06:30:56;;;;;;;1.27;1.08;;;16.40;98.30;;;;;;5071821;28;20446;-68
2021/06/30 06:33:22;;;;;;;2.33;0.95;;;16.30;98.30;;;;;;5074721;28;20112;-68
2021/06/30 06:35:47;;;;;;;1.85;1.08;;;16.30;98.30;;;;;;5075805;28;20074;-68
2021/06/30 06:38:14;;;;;;;1.27;1.00;;;16.30;98.30;;;;;;5074695;28;20027;-68
2021/06/30 06:40:41;;;;;;;2.05;1.27;;;16.30;98.30;;;;;;5075637;28;20103;-69
2021/06/30 06:43:08;;;;;;;1.98;1.40;;;16.30;98.40;;;;;;5066735;28;20075;-68
2021/06/30 06:45:34;;;;;;;2.13;1.35;;;16.30;98.40;;;;;;5074383;28;20020;-68
2021/06/30 06:48:00;;;;;;;1.52;1.33;;;16.20;98.40;;;;;;5075678;28;20480;-68
2021/06/30 06:50:25;;;;;;;1.30;1.10;;;16.20;98.40;;;;;;5075405;28;20035;-68
2021/06/30 06:52:51;;;;;;;1.00;0.90;;;16.20;98.40;;;;;;5071816;28;20082;-68
2021/06/30 06:55:17;;;;;;;1.70;1.13;;;16.20;98.40;;;;;;5055361;28;20104;-68
2021/06/30 06:57:43;;;;;;;1.05;0.90;;;16.30;98.40;;;;;;5055242;28;20048;-68
2021/06/30 07:00:10;;;;;;;1.50;1.10;;;16.30;98.40;;;;;;5053010;28;20712;-68
2021/06/30 07:02:35;;;;;;;1.27;0.98;;;16.40;98.70;;;;;;5049138;28;20040;-68
2021/06/30 07:05:01;;;;;;;1.55;0.90;;;16.40;98.30;;;;;;5054847;28;20469;-68
2021/06/30 07:07:26;;;;;;;1.88;1.08;;;16.40;98.30;;;;;;5059621;28;20090;-68
2021/06/30 07:09:52;;;;;;;1.60;1.10;;;16.40;98.30;;;;;;5075104;28;20380;-68
2021/06/30 07:12:18;;;;;;;1.75;1.30;;;16.40;98.30;;;;;;5074925;28;20017;-68
2021/06/30 07:14:43;;;;;;;1.90;1.30;;;16.40;98.30;;;;;;5074845;28;20523;-68
2021/06/30 07:17:09;;;;;;;1.48;1.27;;;16.40;98.30;;;;;;5063824;28;20724;-68
2021/06/30 07:19:35;;;;;;;1.52;0.98;;;16.50;98.30;;;;;;5053326;28;20052;-69
2021/06/30 07:22:00;;;;;;;1.52;1.23;;;16.50;98.30;;;;;;5054909;28;20033;-68
2021/06/30 07:24:26;;;;;;;1.58;1.02;;;16.50;98.30;;;;;;5054809;28;20067;-68
2021/06/30 07:26:51;;;;;;;1.33;1.23;;;16.50;98.30;;;;;;5054576;28;20029;-68
2021/06/30 07:29:17;;;;;;;1.75;1.20;;;16.50;98.20;;;;;;5054809;28;20488;-69
2021/06/30 07:31:43;;;;;;;1.52;0.98;;;16.60;98.10;;;;;;5046990;28;20061;-67
2021/06/30 07:34:08;;;;;;;1.90;1.30;;;16.70;98.10;;;;;;5030190;28;20037;-68
2021/06/30 07:36:34;;;;;;;1.48;1.00;;;16.70;98.00;;;;;;5041052;28;20029;-68
2021/06/30 07:38:59;;;;;;;1.30;1.10;;;16.80;98.00;;;;;;5054571;28;20044;-68
2021/06/30 07:41:25;;;;;;;1.27;1.02;;;16.80;97.90;;;;;;5054376;28;20029;-69
2021/06/30 07:43:51;;;;;;;1.80;1.20;;;16.90;97.90;;;;;;5054430;28;20032;-69
2021/06/30 07:46:16;;;;;;;1.60;1.10;;;16.90;97.80;;;;;;5053080;28;20040;-69
2021/06/30 07:48:42;;;;;;;1.13;1.02;;;16.90;97.80;;;;;;5054159;28;20108;-70
2021/06/30 07:51:07;;;;;;;1.50;1.17;;;17.00;97.70;;;;;;5054419;28;20048;-69
2021/06/30 07:53:33;;;;;;;1.60;1.05;;;17.00;97.70;;;;;;5052895;28;20032;-70
2021/06/30 07:55:58;;;;;;;1.20;0.85;;;17.10;97.60;;;;;;5054312;28;20044;-70
2021/06/30 07:58:24;;;;;;;1.58;1.20;;;17.10;97.60;;;;;;5054126;28;20032;-70
2021/06/30 08:00:50;;;;;;;1.02;0.80;;;17.10;97.50;;;;;;5054038;28;20027;-70
2021/06/30 08:03:15;;;;;;;0.90;0.80;;;17.10;97.50;;;;;;5054068;28;20021;-70
2021/06/30 08:05:41;;;;;;;1.02;0.60;;;17.10;97.40;;;;;;5054037;28;20035;-69
2021/06/30 08:08:06;;;;;;;1.00;0.73;;;17.10;97.40;;;;;;5052421;28;20025;-69
2021/06/30 08:10:32;;;;;;;1.48;1.02;;;17.20;97.50;;;;;;5053849;28;20021;-69
2021/06/30 08:12:58;;;;;;;1.02;0.85;;;17.20;97.50;;;;;;5052678;28;20029;-70
2021/06/30 08:15:24;;;;;;;1.00;0.90;;;17.20;97.40;;;;;;5054011;28;20029;-69
2021/06/30 08:17:49;;;;;;;0.90;0.80;;;17.20;97.40;;;;;;5053617;28;20272;-70
2021/06/30 08:20:15;;;;;;;1.27;1.00;;;17.20;97.40;;;;;;5053671;28;20060;-70
2021/06/30 08:22:41;;;;;;;1.02;0.90;;;17.30;97.30;;;;;;5053646;28;20534;-70
2021/06/30 08:25:08;;;;;;;1.30;1.05;;;17.20;97.30;;;;;;5053596;28;20057;-70
2021/06/30 08:27:35;;;;;;;1.27;0.90;;;17.30;97.20;;;;;;5053313;28;20025;-69
2021/06/30 08:30:02;;;;;;;2.00;0.70;;;17.30;97.20;;;;;;5052609;28;20028;-69
2021/06/30 08:32:28;;;;;;;1.05;0.82;;;17.20;97.20;;;;;;5073843;28;20021;-70
2021/06/30 08:34:54;;;;;;;1.13;0.77;;;17.20;97.30;;;;;;5073647;28;20029;-70
2021/06/30 08:37:20;;;;;;;0.90;0.60;;;17.30;97.30;;;;;;5072148;28;20675;-70
2021/06/30 08:39:46;;;;;;;1.20;0.90;;;17.30;97.20;;;;;;5072158;28;20120;-70
2021/06/30 08:42:14;;;;;;;1.05;0.70;;;17.30;97.10;;;;;;5072001;28;20048;-69
2021/06/30 08:44:40;;;;;;;2.00;0.80;;;17.30;97.10;;;;;;5073081;28;20020;-69
2021/06/30 08:47:07;;;;;;;1.35;1.20;;;17.30;97.00;;;;;;5071800;28;20039;-69
2021/06/30 08:49:34;;;;;;;1.20;1.10;;;17.30;97.00;;;;;;5073007;28;20017;-69
2021/06/30 08:52:00;;;;;;;1.95;1.05;;;17.30;97.00;;;;;;5040894;28;20025;-69
2021/06/30 08:54:26;;;;;;;1.25;0.80;;;17.40;97.00;;;;;;5025342;28;20033;-69
2021/06/30 08:56:52;;;;;;;1.40;1.00;;;17.40;97.00;;;;;;5050501;28;20025;-70
2021/06/30 08:59:18;;;;;;;1.65;1.00;;;17.40;97.00;;;;;;5060002;28;20049;-70
2021/06/30 09:01:45;;;;;;;1.13;0.82;;;17.40;97.00;;;;;;5061677;28;20044;-70
2021/06/30 09:04:12;;;;;;;1.30;1.20;;;17.40;97.10;;;;;;5033030;28;20030;-69
2021/06/30 09:06:39;;;;;;;1.67;1.40;;;17.40;97.10;;;;;;5047784;28;20025;-69
2021/06/30 09:09:13;;;;;;;2.25;1.55;;;17.40;97.10;;;;;;5054593;28;20031;-70
2021/06/30 09:11:40;;;;;;;1.95;1.75;;;17.40;97.00;;;;;;5071662;28;20032;-70
2021/06/30 09:14:25;;;;;;;1.63;1.50;;;17.40;97.10;;;;;;5072555;28;20492;-70
2021/06/30 09:17:26;;;;;;;1.90;1.70;;;17.50;97.00;;;;;;5050207;28;20111;-69
2021/06/30 09:20:06;;;;;;;1.90;1.40;;;17.50;97.00;;;;;;5051162;28;20033;-70
2021/06/30 09:22:58;;;;;;;1.98;1.73;;;17.40;97.00;;;;;;5048747;28;20025;-70
2021/06/30 09:25:25;;;;;;;2.00;1.75;;;17.50;96.90;;;;;;5047806;28;20052;-70
2021/06/30 09:27:51;;;;;;;1.95;1.75;;;17.40;96.90;;;;;;5052682;28;20408;-70
2021/06/30 09:30:17;;;;;;;2.55;1.60;;;17.40;97.00;;;;;;5052708;28;20032;-70
2021/06/30 09:32:56;;;;;;;2.13;1.90;;;17.40;97.00;;;;;;5052304;28;20465;-70
2021/06/30 09:35:28;;;;;;;2.10;1.83;;;17.50;96.90;;;;;;5052706;28;20086;-70
2021/06/30 09:37:53;;;;;;;2.20;1.70;;;17.40;96.90;;;;;;5052559;28;20473;-70
2021/06/30 09:40:19;;;;;;;2.08;1.85;;;17.40;96.90;;;;;;5052717;28;20032;-71
2021/06/30 09:42:46;;;;;;;1.65;1.50;;;17.40;97.00;;;;;;5051584;28;20082;-70
2021/06/30 09:45:16;;;;;;;2.20;1.60;;;17.40;96.90;;;;;;5052340;28;20504;-70
2021/06/30 09:47:43;;;;;;;3.28;1.90;;;17.40;96.90;;;;;;5052698;28;20025;-71
2021/06/30 09:50:09;;;;;;;2.17;1.92;;;17.40;96.90;;;;;;5052585;28;20021;-70
2021/06/30 09:52:41;;;;;;;2.65;1.83;;;17.40;96.90;;;;;;5052512;28;20032;-70
2021/06/30 09:55:23;;;;;;;2.22;2.03;;;17.40;96.90;;;;;;5052560;28;20028;-71
2021/06/30 09:57:49;;;;;;;2.20;2.00;;;17.40;96.90;;;;;;5052302;28;20071;-70
2021/06/30 10:00:18;;;;;;;2.35;1.60;;;17.30;97.00;;;;;;5052316;28;20029;-70
2021/06/30 10:02:47;;;;;;;1.70;1.30;;;17.30;97.10;;;;;;5052488;28;20032;-70
2021/06/30 10:05:13;;;;;;;1.73;1.40;;;17.30;97.10;;;;;;5052721;28;20469;-71
2021/06/30 10:07:38;;;;;;;2.22;1.45;;;17.40;97.10;;;;;;5072421;28;20100;-70
2021/06/30 10:10:07;;;;;;;1.40;1.30;;;17.40;97.10;;;;;;5072332;28;20021;-70
2021/06/30 10:12:34;;;;;;;1.47;1.23;;;17.40;97.10;;;;;;5069155;28;20037;-70
2021/06/30 10:15:03;;;;;;;1.65;1.52;;;17.40;97.00;;;;;;5052136;28;20237;-70
2021/06/30 10:17:29;;;;;;;2.60;1.25;;;17.50;97.00;;;;;;5052165;28;20100;-70
2021/06/30 10:19:55;;;;;;;1.85;1.30;;;17.50;97.00;;;;;;5050195;28;20160;-70
2021/06/30 10:22:23;;;;;;;2.08;1.40;;;17.50;97.20;;;;;;5052280;28;20473;-70
2021/06/30 10:24:49;;;;;;;2.20;1.83;;;17.60;97.00;;;;;;5057238;28;20056;-70
2021/06/30 10:27:15;;;;;;;2.45;1.65;;;17.60;96.90;;;;;;5061723;28;20087;-69
2021/06/30 10:30:01;;;;;;;2.92;1.85;;;17.70;96.90;;;;;;5059552;28;20028;-70
2021/06/30 10:32:28;;;;;;;1.75;1.42;;;17.70;96.80;;;;;;5062372;28;20037;-69
2021/06/30 10:34:57;;;;;;;1.92;1.48;;;17.70;97.00;;;;;;5061907;28;20024;-69
2021/06/30 10:37:31;;;;;;;1.50;1.40;;;17.80;97.00;;;;;;5064121;28;20029;-69
2021/06/30 10:40:14;;;;;;;1.60;1.40;;;17.80;97.00;;;;;;5065066;28;20020;-70
2021/06/30 10:42:46;;;;;;;1.35;1.23;;;18.00;96.90;;;;;;5035720;28;20018;-70
2021/06/30 10:45:15;;;;;;;2.20;1.60;;;18.00;97.00;;;;;;5035612;28;20434;-70
2021/06/30 10:47:48;;;;;;;1.58;1.40;;;18.20;96.90;;;;;;5035586;28;20021;-71
2021/06/30 10:50:19;;;;;;;3.05;2.20;;;18.40;96.80;;;;;;5052810;28;20056;-70
2021/06/30 10:52:48;;;;;;;2.00;1.70;;;18.60;96.60;;;;;;5050652;28;20020;-71
2021/06/30 10:55:32;;;;;;;2.17;1.73;;;18.80;96.40;;;;;;5055501;28;20024;-71
2021/06/30 10:58:13;;;;;;;1.92;1.67;;;18.90;96.00;;;;;;5035510;28;20025;-71
2021/06/30 11:00:51;;;;;;;1.88;1.55;;;19.10;95.70;;;;;;5035073;28;20465;-71
2021/06/30 11:03:29;;;;;;;2.40;2.08;;;19.20;95.50;;;;;;5048308;28;20389;-71
2021/06/30 11:06:06;;;;;;;1.58;1.42;;;19.20;95.30;;;;;;5027422;28;20028;-71
2021/06/30 11:08:38;;;;;;;1.83;1.50;;;19.20;95.10;;;;;;5045561;28;20139;-70
2021/06/30 11:11:03;;;;;;;2.10;1.70;;;19.20;95.10;;;;;;5042892;28;20027;-71
2021/06/30 11:13:51;;;;;;;1.27;1.05;;;19.20;95.00;;;;;;5055084;28;20029;-71
2021/06/30 11:16:36;;;;;;;1.10;1.00;;;19.30;94.80;;;;;;5054832;28;20075;-71
2021/06/30 11:19:02;;;;;;;1.50;1.35;;;19.30;94.80;;;;;;5057499;28;20029;-71
2021/06/30 11:21:47;;;;;;;1.50;1.30;;;19.20;94.70;;;;;;5060235;28;20104;-71
2021/06/30 11:24:42;;;;;;;1.35;1.25;;;19.20;94.70;;;;;;5058443;28;20415;-71
2021/06/30 11:27:21;;;;;;;1.63;1.05;;;19.10;94.50;;;;;;5049708;28;20389;-71
2021/06/30 11:29:56;;;;;;;1.50;1.35;;;19.10;94.50;;;;;;5044676;28;20052;-71
2021/06/30 11:35:20;;;;;;;1.92;1.25;;;19.00;94.60;;;;;;5044204;28;20397;-71
2021/06/30 11:37:55;;;;;;;2.45;1.77;;;18.90;94.70;;;;;;5044343;28;20014;-72
2021/06/30 11:40:24;;;;;;;2.08;1.73;;;18.90;94.60;;;;;;5043897;28;20021;-72
2021/06/30 11:42:53;;;;;;;1.40;1.20;;;18.80;94.70;;;;;;5044830;28;20488;-71
2021/06/30 11:45:22;;;;;;;1.38;1.25;;;18.80;94.80;;;;;;5043380;28;20028;-71
2021/06/30 11:47:51;;;;;;;1.80;1.40;;;18.80;94.80;;;;;;5043168;28;20013;-71
2021/06/30 11:50:18;;;;;;;1.90;1.60;;;18.70;94.70;;;;;;5042723;28;20485;-71
2021/06/30 11:52:45;;;;;;;2.15;1.70;;;18.80;94.80;;;;;;5043813;28;20081;-71
2021/06/30 11:55:11;;;;;;;2.50;1.95;;;18.80;94.80;;;;;;5044709;28;20029;-72
2021/06/30 11:57:49;;;;;;;2.55;2.08;;;18.80;94.80;;;;;;5044839;28;20032;-71
2021/06/30 12:00:15;;;;;;;2.05;1.80;;;18.80;94.70;;;;;;5044733;28;20512;-72
2021/06/30 12:02:45;;;;;;;2.70;1.90;;;18.70;94.70;;;;;;5044656;28;20155;-71
2021/06/30 12:05:12;;;;;;;1.88;1.70;;;18.70;94.80;;;;;;5044534;28;20021;-71
2021/06/30 12:07:42;;;;;;;2.35;1.50;;;18.60;94.90;;;;;;5056961;28;20017;-71
2021/06/30 12:10:09;;;;;;;2.83;2.47;;;18.50;95.00;;;;;;5064622;28;20482;-70
2021/06/30 12:12:34;;;;;;;2.65;2.00;;;18.50;95.40;;;;;;5053825;28;20115;-71
2021/06/30 12:15:03;;;;;;;1.55;1.45;;;18.50;95.20;;;;;;5053778;28;20166;-71
2021/06/30 12:17:29;;;;;;;1.60;1.20;;;18.50;95.20;;;;;;5052276;28;20032;-71
2021/06/30 12:19:55;;;;;;;2.13;1.08;;;18.50;95.30;;;;;;5053622;28;20049;-70
2021/06/30 12:22:31;;;;;;;1.42;0.80;;;18.50;95.20;;;;;;5053878;28;20374;-71
2021/06/30 12:25:11;;;;;;;0.80;0.80;;;18.50;95.30;;;;;;5053727;28;20552;-71
2021/06/30 12:27:44;;;;;;;1.10;0.90;;;18.60;95.20;;;;;;5053724;28;20029;-70
2021/06/30 12:30:28;;;;;;;1.27;1.10;;;18.50;95.20;;;;;;5053589;28;20385;-71
2021/06/30 12:33:13;;;;;;;1.05;0.80;;;18.60;95.20;;;;;;5053348;28;20108;-71
2021/06/30 12:35:41;;;;;;;1.40;1.08;;;18.50;95.20;;;;;;5053501;28;20390;-70
2021/06/30 12:38:22;;;;;;;1.70;1.40;;;18.50;95.20;;;;;;5053343;28;20032;-70
2021/06/30 12:40:48;;;;;;;1.17;0.98;;;18.50;95.20;;;;;;5053339;28;20477;-70
2021/06/30 12:43:20;;;;;;;1.42;1.20;;;18.50;95.40;;;;;;5053458;28;20529;-71
2021/06/30 12:45:48;;;;;;;1.65;1.40;;;18.40;95.40;;;;;;5053335;28;20484;-70
2021/06/30 12:48:21;;;;;;;1.50;1.10;;;18.40;95.50;;;;;;5053152;28;20043;-69
2021/06/30 12:50:50;;;;;;;1.95;1.48;;;18.40;95.50;;;;;;5052970;28;20083;-69
2021/06/30 12:53:32;;;;;;;1.60;1.40;;;18.30;95.60;;;;;;5053484;28;20028;-68